createdAt,value
2018-11-03T00:00:42.075Z,10.20
2018-11-03T00:01:42.049Z,10.13
2018-11-03T00:02:42.071Z,10.15
2018-11-03T00:03:42.085Z,10.02
2018-11-03T00:04:42.114Z,10.05
2018-11-03T00:05:42.129Z,10.05
2018-11-03T00:06:42.140Z,10.07
2018-11-03T00:07:42.163Z,10.15
2018-11-03T00:08:42.202Z,10.04
2018-11-03T00:09:42.202Z,9.89
2018-11-03T00:10:42.225Z,10.04
2018-11-03T00:11:42.240Z,9.98
2018-11-03T00:12:42.256Z,10.04
2018-11-03T00:13:42.279Z,10.02
2018-11-03T00:14:42.295Z,9.87
2018-11-03T00:15:42.315Z,9.86
2018-11-03T00:16:42.331Z,9.83
2018-11-03T00:17:42.349Z,9.84
2018-11-03T00:18:42.373Z,9.83
2018-11-03T00:19:42.389Z,9.84
2018-11-03T00:20:42.410Z,9.86
2018-11-03T00:21:42.424Z,9.76
2018-11-03T00:22:42.440Z,9.73
2018-11-03T00:23:42.465Z,9.61
2018-11-03T00:24:42.480Z,9.66
2018-11-03T00:25:42.516Z,9.64
2018-11-03T00:26:42.526Z,9.47
2018-11-03T00:27:42.538Z,9.37
2018-11-03T00:28:42.554Z,9.10
2018-11-03T00:29:42.572Z,9.03
2018-11-03T00:30:42.599Z,8.94
2018-11-03T00:31:42.616Z,8.97
2018-11-03T00:32:42.631Z,8.95
2018-11-03T00:33:42.652Z,8.88
2018-11-03T00:34:42.666Z,8.89
2018-11-03T00:35:42.687Z,8.99
2018-11-03T00:36:42.707Z,8.91
2018-11-03T00:37:42.722Z,8.95
2018-11-03T00:38:42.749Z,8.89
2018-11-03T00:39:42.759Z,8.88
2018-11-03T00:40:42.779Z,8.89
2018-11-03T00:41:42.794Z,8.87
2018-11-03T00:42:42.835Z,8.91
2018-11-03T00:43:42.840Z,8.85
2018-11-03T00:44:42.862Z,8.85
2018-11-03T00:45:42.871Z,8.79
2018-11-03T00:46:42.890Z,8.71
2018-11-03T00:47:42.924Z,8.71
2018-11-03T00:48:42.925Z,8.64
2018-11-03T00:49:42.945Z,8.66
2018-11-03T00:50:42.965Z,8.63
2018-11-03T00:51:42.998Z,8.53
2018-11-03T00:52:42.998Z,8.41
2018-11-03T00:53:43.014Z,8.38
2018-11-03T00:54:43.032Z,8.48
2018-11-03T00:55:43.054Z,8.44
2018-11-03T00:56:43.072Z,8.41
2018-11-03T00:57:43.090Z,8.30
2018-11-03T00:58:43.105Z,8.18
2018-11-03T00:59:43.121Z,8.23
2018-11-03T01:00:43.145Z,8.03
2018-11-03T01:01:43.163Z,7.98
2018-11-03T01:02:43.180Z,7.77
2018-11-03T01:03:43.195Z,7.82
2018-11-03T01:04:43.216Z,7.93
2018-11-03T01:05:43.242Z,7.93
2018-11-03T01:06:43.261Z,7.82
2018-11-03T01:07:43.273Z,7.70
2018-11-03T01:08:43.286Z,7.69
2018-11-03T01:09:43.302Z,7.61
2018-11-03T01:10:43.321Z,7.66
2018-11-03T01:11:43.339Z,7.70
2018-11-03T01:12:43.372Z,7.67
2018-11-03T01:13:43.375Z,7.60
2018-11-03T01:14:43.399Z,7.58
2018-11-03T01:15:43.411Z,7.67
2018-11-03T01:16:43.434Z,7.51
2018-11-03T01:17:43.446Z,7.50
2018-11-03T01:18:43.472Z,7.50
2018-11-03T01:19:43.483Z,7.40
2018-11-03T01:20:43.504Z,7.33
2018-11-03T01:21:43.518Z,7.33
2018-11-03T01:22:43.539Z,7.39
2018-11-03T01:23:43.623Z,7.39
2018-11-03T01:24:43.570Z,7.38
2018-11-03T01:25:43.585Z,7.32
2018-11-03T01:26:43.608Z,7.29
2018-11-03T01:27:43.625Z,7.17
2018-11-03T01:28:43.645Z,7.20
2018-11-03T01:29:43.663Z,7.07
2018-11-03T01:30:43.689Z,6.95
2018-11-03T01:31:43.701Z,7.13
2018-11-03T01:32:43.861Z,6.97
2018-11-03T01:33:43.729Z,6.97
2018-11-03T01:34:43.754Z,6.97
2018-11-03T01:35:43.767Z,7.03
2018-11-03T01:36:43.802Z,6.97
2018-11-03T01:37:43.800Z,6.82
2018-11-03T01:38:43.816Z,6.78
2018-11-03T01:39:43.834Z,6.75
2018-11-03T01:40:43.873Z,6.45
2018-11-03T01:41:43.871Z,6.22
2018-11-03T01:42:43.893Z,6.17
2018-11-03T01:43:43.902Z,6.26
2018-11-03T01:44:43.941Z,6.27
2018-11-03T01:45:43.944Z,6.41
2018-11-03T01:46:43.959Z,6.46
2018-11-03T01:47:43.974Z,6.42
2018-11-03T01:48:43.996Z,6.42
2018-11-03T01:49:44.017Z,6.38
2018-11-03T01:50:44.025Z,6.35
2018-11-03T01:51:44.039Z,6.38
2018-11-03T01:52:44.064Z,6.31
2018-11-03T01:53:44.084Z,6.26
2018-11-03T01:54:44.125Z,6.42
2018-11-03T01:55:44.114Z,6.33
2018-11-03T01:56:44.129Z,6.28
2018-11-03T01:57:44.143Z,6.33
2018-11-03T01:58:44.167Z,6.31
2018-11-03T01:59:44.183Z,6.27
2018-11-03T02:00:44.200Z,6.16
2018-11-03T02:01:44.211Z,6.04
2018-11-03T02:02:44.230Z,6.19
2018-11-03T02:03:44.248Z,6.09
2018-11-03T02:04:44.281Z,6.16
2018-11-03T02:05:44.283Z,6.02
2018-11-03T02:06:44.302Z,6.02
2018-11-03T02:07:44.314Z,6.05
2018-11-03T02:08:44.333Z,5.98
2018-11-03T02:09:44.354Z,5.97
2018-11-03T02:10:44.370Z,6.05
2018-11-03T02:11:44.389Z,6.05
2018-11-03T02:12:44.401Z,5.93
2018-11-03T02:13:44.415Z,5.84
2018-11-03T02:14:44.434Z,5.91
2018-11-03T02:15:44.455Z,5.84
2018-11-03T02:16:44.474Z,5.75
2018-11-03T02:17:44.485Z,5.89
2018-11-03T02:18:44.501Z,5.84
2018-11-03T02:19:44.525Z,5.75
2018-11-03T02:20:44.556Z,5.71
2018-11-03T02:21:44.555Z,5.66
2018-11-03T02:22:44.573Z,5.61
2018-11-03T02:23:44.590Z,5.73
2018-11-03T02:24:44.604Z,5.71
2018-11-03T02:25:44.644Z,5.62
2018-11-03T02:26:44.641Z,5.62
2018-11-03T02:27:44.656Z,5.61
2018-11-03T02:28:44.672Z,5.51
2018-11-03T02:29:44.693Z,5.59
2018-11-03T02:30:44.703Z,5.57
2018-11-03T02:31:44.719Z,5.51
2018-11-03T02:32:44.744Z,5.50
2018-11-03T02:33:44.754Z,5.47
2018-11-03T02:34:44.772Z,5.44
2018-11-03T02:35:44.785Z,5.38
2018-11-03T02:36:44.810Z,5.44
2018-11-03T02:37:44.844Z,5.35
2018-11-03T02:38:44.842Z,5.38
2018-11-03T02:39:44.857Z,5.44
2018-11-03T02:40:44.873Z,5.46
2018-11-03T02:41:44.890Z,5.36
2018-11-03T02:42:44.903Z,5.21
2018-11-03T02:43:44.923Z,5.21
2018-11-03T02:44:44.935Z,5.29
2018-11-03T02:45:44.957Z,5.15
2018-11-03T02:46:44.973Z,4.96
2018-11-03T02:47:44.983Z,4.84
2018-11-03T02:48:45.007Z,4.93
2018-11-03T02:49:45.042Z,4.77
2018-11-03T02:50:45.084Z,4.80
2018-11-03T02:51:45.064Z,4.86
2018-11-03T02:52:45.093Z,4.99
2018-11-03T02:53:45.086Z,5.02
2018-11-03T02:54:45.102Z,4.96
2018-11-03T02:55:45.129Z,4.82
2018-11-03T02:56:45.135Z,4.87
2018-11-03T02:57:45.163Z,4.84
2018-11-03T02:58:45.165Z,4.90
2018-11-03T02:59:45.186Z,4.92
2018-11-03T03:00:45.200Z,4.92
2018-11-03T03:01:45.249Z,4.97
2018-11-03T03:02:45.258Z,4.97
2018-11-03T03:03:45.282Z,4.96
2018-11-03T03:04:45.277Z,4.92
2018-11-03T03:05:45.312Z,4.97
2018-11-03T03:06:45.297Z,4.86
2018-11-03T03:07:45.318Z,4.71
2018-11-03T03:08:45.333Z,4.66
2018-11-03T03:09:45.349Z,4.70
2018-11-03T03:10:45.361Z,4.71
2018-11-03T03:11:45.382Z,4.66
2018-11-03T03:12:45.398Z,4.41
2018-11-03T03:13:45.410Z,4.37
2018-11-03T03:14:45.440Z,4.44
2018-11-03T03:15:45.444Z,4.44
2018-11-03T03:16:45.462Z,4.44
2018-11-03T03:17:45.490Z,4.41
2018-11-03T03:18:45.493Z,4.52
2018-11-03T03:19:45.519Z,4.44
2018-11-03T03:20:45.540Z,4.30
2018-11-03T03:21:45.543Z,4.22
2018-11-03T03:22:45.559Z,4.02
2018-11-03T03:23:45.580Z,4.12
2018-11-03T03:24:45.596Z,3.99
2018-11-03T03:25:45.610Z,4.01
2018-11-03T03:26:45.629Z,4.05
2018-11-03T03:27:45.640Z,4.14
2018-11-03T03:28:45.792Z,4.23
2018-11-03T03:29:45.864Z,4.31
2018-11-03T03:30:45.688Z,4.17
2018-11-03T03:31:45.704Z,4.01
2018-11-03T03:32:45.722Z,4.14
2018-11-03T03:33:45.740Z,4.17
2018-11-03T03:34:45.749Z,4.16
2018-11-03T03:35:45.773Z,4.17
2018-11-03T03:36:45.784Z,4.05
2018-11-03T03:37:45.806Z,3.81
2018-11-03T03:38:45.830Z,3.69
2018-11-03T03:39:45.875Z,3.63
2018-11-03T03:40:45.853Z,3.58
2018-11-03T03:41:45.867Z,3.68
2018-11-03T03:42:45.888Z,3.65
2018-11-03T03:43:45.896Z,3.74
2018-11-03T03:44:45.909Z,3.80
2018-11-03T03:45:45.938Z,3.84
2018-11-03T03:46:45.958Z,3.83
2018-11-03T03:47:45.957Z,3.81
2018-11-03T03:48:45.980Z,3.91
2018-11-03T03:49:45.989Z,3.83
2018-11-03T03:50:46.039Z,3.83
2018-11-03T03:51:46.028Z,3.73
2018-11-03T03:52:46.036Z,3.81
2018-11-03T03:53:46.053Z,3.84
2018-11-03T03:54:46.066Z,3.80
2018-11-03T03:55:46.083Z,3.95
2018-11-03T03:56:46.107Z,3.80
2018-11-03T03:57:46.112Z,3.80
2018-11-03T03:58:46.128Z,3.78
2018-11-03T03:59:46.149Z,3.80
2018-11-03T04:00:46.164Z,3.76
2018-11-03T04:01:46.208Z,3.56
2018-11-03T04:02:46.191Z,3.51
2018-11-03T04:03:46.207Z,3.55
2018-11-03T04:04:46.225Z,3.48
2018-11-03T04:05:46.236Z,3.53
2018-11-03T04:06:46.254Z,3.44
2018-11-03T04:07:46.280Z,3.47
2018-11-03T04:08:46.286Z,3.41
2018-11-03T04:09:46.300Z,3.47
2018-11-03T04:10:46.315Z,3.25
2018-11-03T04:11:46.335Z,3.22
2018-11-03T04:12:46.347Z,3.03
2018-11-03T04:13:46.361Z,3.25
2018-11-03T04:14:46.380Z,3.26
2018-11-03T04:15:46.397Z,3.37
2018-11-03T04:16:46.406Z,3.36
2018-11-03T04:17:46.435Z,3.31
2018-11-03T04:18:46.448Z,3.36
2018-11-03T04:19:46.456Z,3.48
2018-11-03T04:20:46.477Z,3.44
2018-11-03T04:21:46.484Z,3.51
2018-11-03T04:22:46.512Z,3.58
2018-11-03T04:23:46.518Z,3.58
2018-11-03T04:24:46.538Z,3.50
2018-11-03T04:25:46.547Z,3.53
2018-11-03T04:26:46.564Z,3.45
2018-11-03T04:27:46.577Z,3.55
2018-11-03T04:28:46.592Z,3.45
2018-11-03T04:29:46.604Z,3.45
2018-11-03T04:30:46.623Z,3.32
2018-11-03T04:31:46.641Z,3.36
2018-11-03T04:32:46.672Z,3.31
2018-11-03T04:33:46.667Z,3.04
2018-11-03T04:34:46.684Z,3.08
2018-11-03T04:35:46.721Z,3.00
2018-11-03T04:36:46.722Z,3.01
2018-11-03T04:37:46.747Z,2.98
2018-11-03T04:38:46.748Z,2.97
2018-11-03T04:39:46.766Z,2.89
2018-11-03T04:40:46.778Z,2.71
2018-11-03T04:41:46.789Z,2.89
2018-11-03T04:42:46.809Z,3.00
2018-11-03T04:43:46.831Z,3.07
2018-11-03T04:44:46.846Z,3.21
2018-11-03T04:45:46.854Z,3.19
2018-11-03T04:46:46.870Z,3.28
2018-11-03T04:47:46.901Z,3.14
2018-11-03T04:48:46.902Z,3.22
2018-11-03T04:49:46.913Z,3.22
2018-11-03T04:50:46.954Z,3.25
2018-11-03T04:51:46.942Z,3.32
2018-11-03T04:52:46.959Z,3.31
2018-11-03T04:53:46.980Z,3.25
2018-11-03T04:54:46.989Z,3.31
2018-11-03T04:55:47.005Z,3.34
2018-11-03T04:56:47.022Z,3.41
2018-11-03T04:57:47.053Z,3.28
2018-11-03T04:58:47.058Z,3.21
2018-11-03T04:59:47.070Z,3.23
2018-11-03T05:00:47.084Z,3.01
2018-11-03T05:01:47.097Z,3.04
2018-11-03T05:02:47.107Z,2.97
2018-11-03T05:03:47.130Z,3.00
2018-11-03T05:04:47.139Z,2.89
2018-11-03T05:05:47.174Z,2.98
2018-11-03T05:06:47.169Z,2.87
2018-11-03T05:07:47.198Z,2.89
2018-11-03T05:08:47.205Z,2.90
2018-11-03T05:09:47.267Z,2.90
2018-11-03T05:10:47.241Z,2.98
2018-11-03T05:11:47.257Z,2.80
2018-11-03T05:12:47.264Z,2.80
2018-11-03T05:13:47.275Z,2.87
2018-11-03T05:14:47.292Z,3.00
2018-11-03T05:15:47.307Z,3.00
2018-11-03T05:16:47.332Z,3.05
2018-11-03T05:17:47.335Z,3.14
2018-11-03T05:18:47.360Z,3.13
2018-11-03T05:19:47.366Z,3.11
2018-11-03T05:20:47.386Z,3.11
2018-11-03T05:21:47.397Z,3.01
2018-11-03T05:22:47.414Z,2.92
2018-11-03T05:23:47.432Z,2.86
2018-11-03T05:24:47.443Z,2.90
2018-11-03T05:25:47.462Z,2.87
2018-11-03T05:26:47.476Z,2.90
2018-11-03T05:27:47.496Z,2.89
2018-11-03T05:28:47.500Z,2.90
2018-11-03T05:29:47.519Z,2.89
2018-11-03T05:30:47.543Z,2.87
2018-11-03T05:31:47.552Z,2.90
2018-11-03T05:32:47.561Z,2.80
2018-11-03T05:33:47.582Z,2.67
2018-11-03T05:34:47.594Z,2.61
2018-11-03T05:35:47.621Z,2.62
2018-11-03T05:36:47.668Z,2.50
2018-11-03T05:37:47.639Z,2.38
2018-11-03T05:38:47.654Z,2.38
2018-11-03T05:39:47.669Z,2.36
2018-11-03T05:40:47.687Z,2.36
2018-11-03T05:41:47.704Z,2.54
2018-11-03T05:42:47.716Z,2.49
2018-11-03T05:43:47.726Z,2.39
2018-11-03T05:44:47.743Z,2.43
2018-11-03T05:45:47.760Z,2.25
2018-11-03T05:46:47.786Z,2.35
2018-11-03T05:47:47.801Z,2.36
2018-11-03T05:48:47.812Z,2.31
2018-11-03T05:49:47.820Z,2.39
2018-11-03T05:50:47.851Z,2.47
2018-11-03T05:51:47.849Z,2.51
2018-11-03T05:52:47.869Z,2.53
2018-11-03T05:53:47.890Z,2.51
2018-11-03T05:54:47.894Z,2.49
2018-11-03T05:55:47.907Z,2.38
2018-11-03T05:56:47.923Z,2.39
2018-11-03T05:57:47.946Z,2.44
2018-11-03T05:58:47.998Z,2.39
2018-11-03T05:59:48.002Z,2.50
2018-11-03T06:00:47.993Z,2.60
2018-11-03T06:01:48.012Z,2.62
2018-11-03T06:02:48.016Z,2.56
2018-11-03T06:03:48.031Z,2.51
2018-11-03T06:04:48.048Z,2.42
2018-11-03T06:05:48.056Z,2.35
2018-11-03T06:06:48.077Z,2.50
2018-11-03T06:07:48.083Z,2.28
2018-11-03T06:08:48.155Z,2.15
2018-11-03T06:09:48.145Z,2.11
2018-11-03T06:10:48.133Z,2.26
2018-11-03T06:11:48.150Z,2.31
2018-11-03T06:12:48.162Z,2.38
2018-11-03T06:13:48.177Z,2.51
2018-11-03T06:14:48.193Z,2.36
2018-11-03T06:15:48.220Z,2.38
2018-11-03T06:16:48.223Z,2.36
2018-11-03T06:17:48.250Z,2.29
2018-11-03T06:18:48.255Z,2.25
2018-11-03T06:19:48.263Z,2.29
2018-11-03T06:20:48.281Z,2.33
2018-11-03T06:21:48.293Z,2.36
2018-11-03T06:22:48.324Z,2.49
2018-11-03T06:23:48.333Z,2.42
2018-11-03T06:24:48.346Z,2.36
2018-11-03T06:25:48.352Z,2.43
2018-11-03T06:26:48.367Z,2.32
2018-11-03T06:27:48.421Z,2.32
2018-11-03T06:28:48.397Z,2.39
2018-11-03T06:29:48.426Z,2.39
2018-11-03T06:30:48.432Z,2.29
2018-11-03T06:31:48.445Z,2.26
2018-11-03T06:32:48.457Z,2.15
2018-11-03T06:33:48.469Z,2.36
2018-11-03T06:34:48.483Z,2.54
2018-11-03T06:35:48.504Z,2.53
2018-11-03T06:36:48.515Z,2.50
2018-11-03T06:37:48.530Z,2.54
2018-11-03T06:38:48.583Z,2.56
2018-11-03T06:39:48.563Z,2.39
2018-11-03T06:40:48.573Z,2.49
2018-11-03T06:41:48.586Z,2.33
2018-11-03T06:42:48.605Z,2.15
2018-11-03T06:43:48.620Z,2.11
2018-11-03T06:44:48.651Z,2.08
2018-11-03T06:45:48.648Z,2.07
2018-11-03T06:46:48.681Z,2.28
2018-11-03T06:47:48.679Z,2.26
2018-11-03T06:48:48.698Z,2.10
2018-11-03T06:49:48.714Z,2.20
2018-11-03T06:50:48.725Z,2.38
2018-11-03T06:51:48.737Z,2.47
2018-11-03T06:52:48.764Z,2.31
2018-11-03T06:53:48.766Z,2.38
2018-11-03T06:54:48.782Z,2.33
2018-11-03T06:55:48.793Z,2.36
2018-11-03T06:56:48.808Z,2.38
2018-11-03T06:57:48.825Z,2.51
2018-11-03T06:58:48.848Z,2.53
2018-11-03T06:59:48.855Z,2.67
2018-11-03T07:00:48.876Z,2.86
2018-11-03T07:01:48.915Z,2.85
2018-11-03T07:02:48.904Z,2.82
2018-11-03T07:03:48.919Z,2.86
2018-11-03T07:04:48.937Z,2.89
2018-11-03T07:05:48.948Z,3.01
2018-11-03T07:06:48.964Z,2.87
2018-11-03T07:07:48.992Z,2.89
2018-11-03T07:08:48.988Z,3.07
2018-11-03T07:09:49.016Z,3.23
2018-11-03T07:10:49.020Z,3.29
2018-11-03T07:11:49.069Z,3.44
2018-11-03T07:12:49.183Z,3.81
2018-11-03T07:13:49.081Z,3.94
2018-11-03T07:14:49.093Z,4.31
2018-11-03T07:15:49.096Z,4.68
2018-11-03T07:16:49.114Z,4.75
2018-11-03T07:17:49.263Z,5.04
2018-11-03T07:18:49.149Z,5.20
2018-11-03T07:19:49.159Z,5.54
2018-11-03T07:20:49.176Z,5.73
2018-11-03T07:21:49.344Z,5.80
2018-11-03T07:22:49.245Z,5.98
2018-11-03T07:23:49.227Z,6.38
2018-11-03T07:24:49.249Z,6.57
2018-11-03T07:25:49.261Z,6.79
2018-11-03T07:26:49.279Z,7.02
2018-11-03T07:27:49.293Z,7.13
2018-11-03T07:28:49.316Z,7.15
2018-11-03T07:29:49.390Z,7.20
2018-11-03T07:30:49.349Z,7.17
2018-11-03T07:31:49.372Z,7.42
2018-11-03T07:32:49.385Z,7.33
2018-11-03T07:33:49.399Z,7.50
2018-11-03T07:34:49.422Z,7.10
2018-11-03T07:35:49.440Z,7.00
2018-11-03T07:36:49.471Z,6.88
2018-11-03T07:37:49.474Z,6.89
2018-11-03T07:38:49.503Z,7.03
2018-11-03T07:39:49.513Z,6.79
2018-11-03T07:40:49.559Z,6.46
2018-11-03T07:41:49.549Z,6.09
2018-11-03T07:42:49.630Z,6.09
2018-11-03T07:43:49.616Z,6.38
2018-11-03T07:44:49.608Z,6.52
2018-11-03T07:45:49.630Z,6.31
2018-11-03T07:46:49.641Z,5.94
2018-11-03T07:47:49.666Z,5.90
2018-11-03T07:48:49.788Z,6.02
2018-11-03T07:49:49.700Z,6.14
2018-11-03T07:50:49.732Z,6.17
2018-11-03T07:51:49.740Z,6.48
2018-11-03T07:52:49.762Z,6.74
2018-11-03T07:53:49.782Z,6.64
2018-11-03T07:54:49.848Z,6.67
2018-11-03T07:55:49.811Z,6.89
2018-11-03T07:56:49.832Z,7.38
2018-11-03T07:57:49.858Z,7.14
2018-11-03T07:58:49.895Z,6.96
2018-11-03T07:59:49.914Z,6.78
2018-11-03T08:00:49.910Z,6.81
2018-11-03T08:01:49.930Z,6.85
2018-11-03T08:02:49.949Z,6.93
2018-11-03T08:03:49.964Z,6.95
2018-11-03T08:04:50.058Z,7.02
2018-11-03T08:05:50.005Z,7.29
2018-11-03T08:06:50.036Z,7.42
2018-11-03T08:07:50.061Z,7.38
2018-11-03T08:08:50.080Z,7.50
2018-11-03T08:09:50.109Z,7.50
2018-11-03T08:10:50.096Z,7.85
2018-11-03T08:11:50.117Z,8.06
2018-11-03T08:12:50.137Z,7.43
2018-11-03T08:13:50.168Z,7.61
2018-11-03T08:14:50.174Z,7.93
2018-11-03T08:15:50.255Z,7.83
2018-11-03T08:16:50.213Z,7.54
2018-11-03T08:17:50.231Z,7.67
2018-11-03T08:18:50.252Z,7.35
2018-11-03T08:19:50.266Z,6.84
2018-11-03T08:20:50.290Z,6.81
2018-11-03T08:21:50.310Z,6.44
2018-11-03T08:22:50.323Z,6.33
2018-11-03T08:23:50.421Z,6.36
2018-11-03T08:24:50.356Z,6.27
2018-11-03T08:25:50.382Z,6.31
2018-11-03T08:26:50.396Z,6.22
2018-11-03T08:27:50.433Z,6.11
2018-11-03T08:28:50.430Z,6.35
2018-11-03T08:29:50.455Z,6.27
2018-11-03T08:30:50.477Z,6.27
2018-11-03T08:31:50.493Z,6.46
2018-11-03T08:32:50.500Z,6.67
2018-11-03T08:33:50.537Z,6.77
2018-11-03T08:34:50.566Z,6.92
2018-11-03T08:35:50.556Z,7.18
2018-11-03T08:36:50.581Z,7.28
2018-11-03T08:37:50.599Z,6.84
2018-11-03T08:38:50.626Z,7.11
2018-11-03T08:39:50.635Z,7.17
2018-11-03T08:40:50.653Z,6.95
2018-11-03T08:41:50.668Z,7.13
2018-11-03T08:42:50.681Z,7.28
2018-11-03T08:43:50.747Z,7.14
2018-11-03T08:44:50.740Z,7.10
2018-11-03T08:45:50.744Z,6.77
2018-11-03T08:46:50.755Z,6.51
2018-11-03T08:47:50.773Z,6.52
2018-11-03T08:48:50.860Z,6.60
2018-11-03T08:49:50.811Z,6.46
2018-11-03T08:50:50.819Z,6.56
2018-11-03T08:51:50.849Z,6.59
2018-11-03T08:52:50.858Z,6.97
2018-11-03T08:53:50.875Z,7.07
2018-11-03T08:54:50.897Z,7.10
2018-11-03T08:55:50.920Z,7.14
2018-11-03T08:56:50.960Z,7.14
2018-11-03T08:57:50.948Z,7.43
2018-11-03T08:58:50.979Z,7.51
2018-11-03T08:59:51.129Z,7.17
2018-11-03T09:00:51.008Z,7.28
2018-11-03T09:01:51.026Z,7.02
2018-11-03T09:02:51.033Z,7.18
2018-11-03T09:03:51.053Z,7.17
2018-11-03T09:04:51.101Z,7.18
2018-11-03T09:05:51.098Z,7.21
2018-11-03T09:06:51.135Z,7.43
2018-11-03T09:07:51.126Z,7.51
2018-11-03T09:08:51.151Z,7.33
2018-11-03T09:09:51.163Z,7.47
2018-11-03T09:10:51.206Z,7.60
2018-11-03T09:11:51.198Z,7.67
2018-11-03T09:12:51.215Z,7.77
2018-11-03T09:13:51.232Z,8.03
2018-11-03T09:14:51.343Z,8.23
2018-11-03T09:15:51.270Z,8.13
2018-11-03T09:16:51.285Z,8.31
2018-11-03T09:17:51.302Z,8.66
2018-11-03T09:18:51.322Z,8.76
2018-11-03T09:19:51.346Z,8.88
2018-11-03T09:20:51.364Z,8.37
2018-11-03T09:21:51.510Z,8.19
2018-11-03T09:22:51.395Z,8.19
2018-11-03T09:23:51.418Z,8.41
2018-11-03T09:24:51.439Z,8.78
2018-11-03T09:25:51.459Z,8.97
2018-11-03T09:26:51.474Z,8.94
2018-11-03T09:27:51.484Z,9.19
2018-11-03T09:28:51.521Z,9.25
2018-11-03T09:29:51.525Z,9.34
2018-11-03T09:30:51.541Z,9.11
2018-11-03T09:31:51.635Z,8.84
2018-11-03T09:32:51.575Z,8.58
2018-11-03T09:33:51.617Z,8.48
2018-11-03T09:34:51.840Z,8.31
2018-11-03T09:35:51.634Z,8.49
2018-11-03T09:36:51.657Z,9.18
2018-11-03T09:37:51.672Z,9.11
2018-11-03T09:38:51.737Z,8.85
2018-11-03T09:39:51.745Z,8.85
2018-11-03T09:40:51.727Z,9.03
2018-11-03T09:41:51.743Z,8.82
2018-11-03T09:42:51.768Z,8.85
2018-11-03T09:43:51.780Z,8.99
2018-11-03T09:44:51.820Z,8.84
2018-11-03T09:45:51.819Z,8.85
2018-11-03T09:46:51.833Z,8.78
2018-11-03T09:47:51.856Z,8.84
2018-11-03T09:48:51.872Z,8.76
2018-11-03T09:49:51.896Z,9.00
2018-11-03T09:50:51.925Z,9.06
2018-11-03T09:51:51.952Z,9.04
2018-11-03T09:52:51.948Z,9.04
2018-11-03T09:53:51.969Z,9.31
2018-11-03T09:54:51.986Z,9.21
2018-11-03T09:55:52.011Z,9.51
2018-11-03T09:56:52.073Z,9.73
2018-11-03T09:57:52.072Z,9.54
2018-11-03T09:58:52.090Z,9.56
2018-11-03T09:59:52.091Z,9.54
2018-11-03T10:00:52.093Z,9.61
2018-11-03T10:01:52.109Z,9.55
2018-11-03T10:02:52.138Z,9.65
2018-11-03T10:03:52.169Z,9.79
2018-11-03T10:04:52.165Z,9.84
2018-11-03T10:05:52.183Z,10.12
2018-11-03T10:06:52.202Z,10.02
2018-11-03T10:07:52.221Z,9.94
2018-11-03T10:08:52.245Z,10.20
2018-11-03T10:09:52.271Z,10.23
2018-11-03T10:10:52.301Z,10.33
2018-11-03T10:11:52.297Z,10.44
2018-11-03T10:12:52.342Z,10.41
2018-11-03T10:13:52.334Z,10.35
2018-11-03T10:14:52.353Z,10.20
2018-11-03T10:15:52.427Z,10.28
2018-11-03T10:16:52.391Z,10.17
2018-11-03T10:17:52.413Z,10.23
2018-11-03T10:18:52.443Z,10.33
2018-11-03T10:19:52.451Z,10.02
2018-11-03T10:20:52.471Z,9.98
2018-11-03T10:21:52.489Z,9.97
2018-11-03T10:22:52.563Z,10.30
2018-11-03T10:23:52.545Z,10.48
2018-11-03T10:24:52.544Z,10.40
2018-11-03T10:25:52.581Z,10.54
2018-11-03T10:26:52.585Z,10.69
2018-11-03T10:27:52.601Z,10.93
2018-11-03T10:28:52.619Z,11.02
2018-11-03T10:29:52.641Z,11.14
2018-11-03T10:30:52.694Z,11.17
2018-11-03T10:31:52.676Z,11.14
2018-11-03T10:32:52.699Z,11.04
2018-11-03T10:33:52.802Z,10.81
2018-11-03T10:34:52.748Z,10.79
2018-11-03T10:35:52.755Z,10.67
2018-11-03T10:36:52.774Z,10.71
2018-11-03T10:37:52.790Z,10.67
2018-11-03T10:38:52.814Z,10.84
2018-11-03T10:39:52.843Z,10.89
2018-11-03T10:40:52.857Z,11.08
2018-11-03T10:41:52.869Z,11.29
2018-11-03T10:42:52.905Z,11.18
2018-11-03T10:43:52.917Z,11.29
2018-11-03T10:44:52.935Z,11.04
2018-11-03T10:45:53.063Z,10.63
2018-11-03T10:46:52.975Z,10.64
2018-11-03T10:47:52.988Z,10.92
2018-11-03T10:48:53.031Z,11.11
2018-11-03T10:49:53.027Z,11.18
2018-11-03T10:50:53.051Z,11.10
2018-11-03T10:51:53.061Z,11.22
2018-11-03T10:52:53.084Z,11.25
2018-11-03T10:53:53.102Z,11.26
2018-11-03T10:54:53.122Z,11.12
2018-11-03T10:55:53.145Z,11.17
2018-11-03T10:56:53.156Z,11.26
2018-11-03T10:57:53.179Z,11.00
2018-11-03T10:58:53.205Z,11.26
2018-11-03T10:59:53.220Z,11.40
2018-11-03T11:00:53.244Z,11.41
2018-11-03T11:01:53.255Z,11.44
2018-11-03T11:02:53.285Z,11.51
2018-11-03T11:03:53.302Z,11.65
2018-11-03T11:04:53.316Z,11.55
2018-11-03T11:05:53.347Z,11.52
2018-11-03T11:06:53.352Z,11.57
2018-11-03T11:07:53.373Z,11.66
2018-11-03T11:08:53.391Z,11.62
2018-11-03T11:09:53.407Z,11.81
2018-11-03T11:10:53.430Z,11.95
2018-11-03T11:11:53.450Z,12.10
2018-11-03T11:12:53.512Z,12.18
2018-11-03T11:13:53.529Z,12.28
2018-11-03T11:14:53.503Z,12.20
2018-11-03T11:15:53.659Z,12.18
2018-11-03T11:16:53.620Z,12.09
2018-11-03T11:17:53.565Z,12.02
2018-11-03T11:18:53.587Z,11.95
2018-11-03T11:19:53.603Z,11.95
2018-11-03T11:20:53.627Z,11.90
2018-11-03T11:21:53.651Z,11.81
2018-11-03T11:22:53.668Z,11.77
2018-11-03T11:23:53.753Z,11.86
2018-11-03T11:24:53.956Z,11.97
2018-11-03T11:25:53.718Z,12.18
2018-11-03T11:26:53.748Z,12.27
2018-11-03T11:27:53.766Z,12.22
2018-11-03T11:28:53.801Z,12.20
2018-11-03T11:29:53.799Z,12.27
2018-11-03T11:30:53.825Z,12.29
2018-11-03T11:31:53.853Z,12.35
2018-11-03T11:32:53.885Z,12.43
2018-11-03T11:33:53.892Z,12.58
2018-11-03T11:34:53.912Z,12.68
2018-11-03T11:35:53.924Z,12.70
2018-11-03T11:36:53.946Z,12.57
2018-11-03T11:37:53.960Z,12.64
2018-11-03T11:38:53.980Z,12.55
2018-11-03T11:39:53.999Z,12.47
2018-11-03T11:40:54.015Z,12.24
2018-11-03T11:41:54.035Z,12.40
2018-11-03T11:42:54.123Z,12.60
2018-11-03T11:43:54.075Z,12.61
2018-11-03T11:44:54.093Z,12.29
2018-11-03T11:45:54.112Z,12.20
2018-11-03T11:46:54.137Z,12.20
2018-11-03T11:47:54.153Z,12.39
2018-11-03T11:48:54.187Z,12.65
2018-11-03T11:49:54.198Z,12.79
2018-11-03T11:50:54.221Z,12.72
2018-11-03T11:51:54.236Z,12.42
2018-11-03T11:52:54.262Z,12.04
2018-11-03T11:53:54.288Z,12.18
2018-11-03T11:54:54.341Z,12.37
2018-11-03T11:55:54.316Z,12.43
2018-11-03T11:56:54.332Z,12.25
2018-11-03T11:57:54.349Z,12.57
2018-11-03T11:58:54.376Z,12.21
2018-11-03T11:59:54.391Z,12.27
2018-11-03T12:00:54.413Z,12.37
2018-11-03T12:01:54.439Z,12.35
2018-11-03T12:02:54.450Z,12.45
2018-11-03T12:03:54.473Z,12.58
2018-11-03T12:04:54.497Z,12.29
2018-11-03T12:05:54.549Z,12.35
2018-11-03T12:06:54.561Z,12.21
2018-11-03T12:07:54.556Z,12.31
2018-11-03T12:08:54.595Z,12.18
2018-11-03T12:09:54.669Z,12.22
2018-11-03T12:10:54.612Z,12.22
2018-11-03T12:11:54.712Z,12.04
2018-11-03T12:12:54.649Z,12.24
2018-11-03T12:13:54.666Z,12.28
2018-11-03T12:14:54.687Z,12.25
2018-11-03T12:15:54.718Z,12.57
2018-11-03T12:16:54.733Z,12.40
2018-11-03T12:17:54.757Z,12.62
2018-11-03T12:18:54.770Z,12.62
2018-11-03T12:19:54.794Z,12.67
2018-11-03T12:20:54.822Z,12.79
2018-11-03T12:21:54.825Z,12.80
2018-11-03T12:22:54.860Z,12.82
2018-11-03T12:23:54.875Z,12.31
2018-11-03T12:24:54.888Z,12.29
2018-11-03T12:25:54.912Z,12.50
2018-11-03T12:26:54.936Z,12.55
2018-11-03T12:27:54.950Z,12.55
2018-11-03T12:28:54.970Z,12.32
2018-11-03T12:29:54.981Z,12.29
2018-11-03T12:30:55.011Z,12.53
2018-11-03T12:31:55.028Z,12.68
2018-11-03T12:32:55.069Z,12.64
2018-11-03T12:33:55.061Z,12.49
2018-11-03T12:34:55.085Z,12.24
2018-11-03T12:35:55.103Z,12.42
2018-11-03T12:36:55.130Z,12.73
2018-11-03T12:37:55.143Z,12.57
2018-11-03T12:38:55.166Z,12.43
2018-11-03T12:39:55.185Z,12.36
2018-11-03T12:40:55.325Z,12.21
2018-11-03T12:41:55.234Z,12.45
2018-11-03T12:42:55.238Z,12.29
2018-11-03T12:43:55.270Z,12.31
2018-11-03T12:44:55.289Z,12.47
2018-11-03T12:45:55.298Z,12.46
2018-11-03T12:46:55.386Z,12.25
2018-11-03T12:47:55.356Z,12.29
2018-11-03T12:48:55.396Z,12.18
2018-11-03T12:49:55.405Z,12.29
2018-11-03T12:50:55.404Z,12.40
2018-11-03T12:51:55.457Z,12.62
2018-11-03T12:52:55.450Z,12.65
2018-11-03T12:53:55.463Z,12.57
2018-11-03T12:54:55.480Z,12.42
2018-11-03T12:55:55.499Z,12.39
2018-11-03T12:56:55.528Z,12.54
2018-11-03T12:57:55.537Z,12.36
2018-11-03T12:58:55.611Z,12.18
2018-11-03T12:59:55.580Z,12.02
2018-11-03T13:00:55.641Z,12.22
2018-11-03T13:01:55.632Z,12.31
2018-11-03T13:02:55.651Z,12.36
2018-11-03T13:03:55.663Z,12.12
2018-11-03T13:04:55.719Z,12.15
2018-11-03T13:05:55.693Z,12.17
2018-11-03T13:06:55.712Z,12.13
2018-11-03T13:07:55.729Z,12.22
2018-11-03T13:08:55.753Z,12.24
2018-11-03T13:09:55.833Z,12.36
2018-11-03T13:10:55.789Z,12.28
2018-11-03T13:11:55.844Z,12.31